createdAt,value
2023-02-22T00:00:12.135Z,19.80
2023-02-22T00:02:38.665Z,19.80
2023-02-22T00:05:05.204Z,19.80
2023-02-22T00:07:31.682Z,19.80
2023-02-22T00:09:58.158Z,19.80
2023-02-22T00:12:24.628Z,19.90
2023-02-22T00:14:51.177Z,19.90
2023-02-22T00:17:17.683Z,19.90
2023-02-22T00:19:44.184Z,19.90
2023-02-22T00:22:10.652Z,19.90
2023-02-22T00:24:37.127Z,19.90
2023-02-22T00:27:03.658Z,19.90
2023-02-22T00:29:30.130Z,19.90
2023-02-22T00:31:56.713Z,19.90
2023-02-22T00:34:23.276Z,19.90
2023-02-22T00:36:49.785Z,19.90
2023-02-22T00:39:16.262Z,19.90
2023-02-22T00:41:42.879Z,19.90
2023-02-22T00:44:09.461Z,19.90
2023-02-22T00:46:35.977Z,19.90
2023-02-22T00:49:02.451Z,19.90
2023-02-22T00:51:28.980Z,19.90
2023-02-22T00:53:55.473Z,19.80
2023-02-22T00:56:21.917Z,19.90
2023-02-22T00:58:48.375Z,20.00
2023-02-22T01:01:15.265Z,19.80
2023-02-22T01:03:41.965Z,20.30
2023-02-22T01:06:08.676Z,19.80
2023-02-22T01:08:35.186Z,19.80
2023-02-22T01:11:01.676Z,19.80
2023-02-22T01:13:28.160Z,19.90
2023-02-22T01:15:54.612Z,19.70
2023-02-22T01:18:21.116Z,19.70
2023-02-22T01:20:47.588Z,19.70
2023-02-22T01:23:14.114Z,19.70
2023-02-22T01:25:40.598Z,19.70
2023-02-22T01:28:07.077Z,19.80
2023-02-22T01:30:33.680Z,19.80
2023-02-22T01:33:00.227Z,19.80
2023-02-22T01:35:26.714Z,19.80
2023-02-22T01:37:53.208Z,19.80
2023-02-22T01:40:19.695Z,19.80
2023-02-22T01:42:46.156Z,19.80
2023-02-22T01:45:12.634Z,19.80
2023-02-22T01:47:39.159Z,19.90
2023-02-22T01:50:05.649Z,19.90
2023-02-22T01:52:32.148Z,19.90
2023-02-22T01:54:58.660Z,19.90
2023-02-22T01:57:25.130Z,19.90
2023-02-22T01:59:51.708Z,19.90
2023-02-22T02:02:18.232Z,19.90
2023-02-22T02:04:44.754Z,20.00
2023-02-22T02:07:11.218Z,20.00
2023-02-22T02:09:37.672Z,19.90
2023-02-22T02:12:04.145Z,19.90
2023-02-22T02:14:30.654Z,19.90
2023-02-22T02:16:57.152Z,20.00
2023-02-22T02:19:23.664Z,20.00
2023-02-22T02:21:50.115Z,19.90
2023-02-22T02:24:16.600Z,20.00
2023-02-22T02:26:43.051Z,19.90
2023-02-22T02:29:09.498Z,19.90
2023-02-22T02:31:36.022Z,20.00
2023-02-22T02:34:02.509Z,19.90
2023-02-22T02:42:10.381Z,20.00
2023-02-22T02:44:36.882Z,19.90
2023-02-22T02:47:03.388Z,19.90
2023-02-22T02:49:29.915Z,19.90
2023-02-22T02:51:56.436Z,20.00
2023-02-22T02:54:22.892Z,19.90
2023-02-22T02:56:49.350Z,20.00
2023-02-22T02:59:15.809Z,20.00
2023-02-22T03:01:42.286Z,20.00
2023-02-22T03:04:08.782Z,20.00
2023-02-22T03:06:35.238Z,20.00
2023-02-22T03:09:01.748Z,20.00
2023-02-22T03:11:28.200Z,20.00
2023-02-22T03:13:54.716Z,19.90
2023-02-22T03:16:21.241Z,20.00
2023-02-22T03:18:47.736Z,19.90
2023-02-22T03:21:14.398Z,20.00
2023-02-22T03:23:40.928Z,19.90
2023-02-22T03:26:07.423Z,20.00
2023-02-22T03:28:33.915Z,19.90
2023-02-22T03:31:00.413Z,20.00
2023-02-22T03:33:26.863Z,20.40
2023-02-22T03:35:53.347Z,20.00
2023-02-22T03:38:19.832Z,20.00
2023-02-22T03:40:46.290Z,20.00
2023-02-22T03:43:12.777Z,20.00
2023-02-22T03:45:39.249Z,20.00
2023-02-22T03:48:05.731Z,20.00
2023-02-22T03:50:32.194Z,20.00
2023-02-22T03:52:58.709Z,20.00
2023-02-22T03:55:25.166Z,19.90
2023-02-22T03:57:51.665Z,19.90
2023-02-22T04:00:18.165Z,19.80
2023-02-22T04:02:44.652Z,19.80
2023-02-22T04:05:11.128Z,19.80
2023-02-22T04:07:37.641Z,19.80
2023-02-22T04:10:04.144Z,19.70
2023-02-22T04:12:30.627Z,19.70
2023-02-22T04:14:57.105Z,19.80
2023-02-22T04:17:23.614Z,19.80
2023-02-22T04:19:50.066Z,19.70
2023-02-22T04:22:16.541Z,19.70
2023-02-22T04:24:43.042Z,19.80
2023-02-22T04:27:09.571Z,19.80
2023-02-22T04:29:36.083Z,19.80
2023-02-22T04:32:02.566Z,19.70
2023-02-22T04:34:29.068Z,19.90
2023-02-22T04:36:55.574Z,19.80
2023-02-22T04:39:22.074Z,19.80
2023-02-22T04:41:48.577Z,19.90
2023-02-22T04:44:15.060Z,19.90
2023-02-22T04:46:41.602Z,19.90
2023-02-22T04:49:08.106Z,19.90
2023-02-22T04:51:34.577Z,19.90
2023-02-22T04:54:01.024Z,19.90
2023-02-22T04:56:27.569Z,20.00
2023-02-22T04:58:54.057Z,19.90
2023-02-22T05:01:20.589Z,19.90
2023-02-22T05:03:47.096Z,20.00
2023-02-22T05:06:13.573Z,19.90
2023-02-22T05:08:40.100Z,19.90
2023-02-22T05:11:06.668Z,20.00
2023-02-22T05:13:33.175Z,20.40
2023-02-22T05:15:59.676Z,20.00
2023-02-22T05:18:26.150Z,20.00
2023-02-22T05:20:52.709Z,20.00
2023-02-22T05:23:19.222Z,20.00
2023-02-22T05:25:45.704Z,20.00
2023-02-22T05:28:12.169Z,20.00
2023-02-22T05:30:38.703Z,20.00
2023-02-22T05:33:05.222Z,20.00
2023-02-22T05:35:31.736Z,20.00
2023-02-22T05:37:58.189Z,20.00
2023-02-22T05:40:24.641Z,20.10
2023-02-22T05:42:51.143Z,20.10
2023-02-22T05:45:17.640Z,20.00
2023-02-22T05:47:44.106Z,20.10
2023-02-22T05:50:10.593Z,20.00
2023-02-22T05:52:37.094Z,20.00
2023-02-22T05:55:03.559Z,20.00
2023-02-22T05:57:30.045Z,20.10
2023-02-22T05:59:56.517Z,20.10
2023-02-22T06:02:22.971Z,20.00
2023-02-22T06:04:49.434Z,20.00
2023-02-22T06:07:15.907Z,20.00
2023-02-22T06:09:42.394Z,20.00
2023-02-22T06:12:08.909Z,20.00
2023-02-22T06:14:35.395Z,20.00
2023-02-22T06:17:01.850Z,20.00
2023-02-22T06:19:28.351Z,20.10
2023-02-22T06:21:54.852Z,20.10
2023-02-22T06:24:21.437Z,20.00
2023-02-22T06:26:47.898Z,20.00
2023-02-22T06:29:14.376Z,20.00
2023-02-22T06:31:41.004Z,20.00
2023-02-22T06:34:07.518Z,20.00
2023-02-22T06:36:34.023Z,20.00
2023-02-22T06:39:00.471Z,20.00
2023-02-22T06:41:26.990Z,20.00
2023-02-22T06:43:53.496Z,20.00
2023-02-22T06:46:20.009Z,20.00
2023-02-22T06:48:46.460Z,20.00
2023-02-22T06:51:12.949Z,19.90
2023-02-22T06:53:39.477Z,20.00
2023-02-22T06:56:05.974Z,19.90
2023-02-22T06:58:32.447Z,19.90
2023-02-22T07:00:58.943Z,20.00
2023-02-22T07:03:25.482Z,19.90
2023-02-22T07:05:52.203Z,20.00
2023-02-22T07:08:18.690Z,20.00
2023-02-22T07:10:45.190Z,20.00
2023-02-22T07:13:11.717Z,19.90
2023-02-22T07:15:38.203Z,19.90
2023-02-22T07:18:04.768Z,19.90
2023-02-22T07:20:31.313Z,19.70
2023-02-22T07:22:57.857Z,19.90
2023-02-22T07:25:24.385Z,19.90
2023-02-22T07:27:50.901Z,20.00
2023-02-22T07:30:17.438Z,20.00
2023-02-22T07:32:44.119Z,20.00
2023-02-22T07:35:10.778Z,20.00
2023-02-22T07:37:37.272Z,20.00
2023-02-22T07:40:03.773Z,20.00
2023-02-22T07:42:30.245Z,20.00
2023-02-22T07:44:56.706Z,20.00
2023-02-22T07:47:23.226Z,20.00
2023-02-22T07:49:49.715Z,20.10
2023-02-22T07:52:16.217Z,20.10
2023-02-22T07:54:42.692Z,20.10
2023-02-22T07:57:09.185Z,20.10
2023-02-22T07:59:35.677Z,20.20
2023-02-22T08:02:02.216Z,20.20
2023-02-22T08:04:28.678Z,20.20
2023-02-22T08:06:55.134Z,20.20
2023-02-22T08:09:21.628Z,20.20
2023-02-22T08:11:48.138Z,20.30
2023-02-22T08:14:14.622Z,20.30
2023-02-22T08:16:41.100Z,20.30
2023-02-22T08:19:07.637Z,20.40
2023-02-22T08:21:34.139Z,20.40
2023-02-22T08:24:00.601Z,20.50
2023-02-22T08:26:27.050Z,20.40
2023-02-22T08:28:53.740Z,20.50
2023-02-22T08:31:20.542Z,20.50
2023-02-22T08:33:47.186Z,20.60
2023-02-22T08:36:13.695Z,20.60
2023-02-22T08:38:40.208Z,20.60
2023-02-22T08:41:06.703Z,20.60
2023-02-22T08:43:33.175Z,20.70
2023-02-22T08:45:59.699Z,20.60
2023-02-22T08:48:26.254Z,20.60
2023-02-22T08:50:52.790Z,20.50
2023-02-22T08:53:19.244Z,20.40
2023-02-22T08:55:45.816Z,20.60
2023-02-22T08:58:12.482Z,20.60
2023-02-22T09:00:39.189Z,20.60
2023-02-22T09:03:05.720Z,20.60
2023-02-22T09:05:32.213Z,20.50
2023-02-22T09:07:58.700Z,20.60
2023-02-22T09:10:25.216Z,20.60
2023-02-22T09:12:51.685Z,20.60
2023-02-22T09:15:18.164Z,20.60
2023-02-22T09:17:44.750Z,20.60
2023-02-22T09:20:11.292Z,20.60
2023-02-22T09:22:37.790Z,20.60
2023-02-22T09:25:16.011Z,20.60
2023-02-22T09:27:43.063Z,20.60
2023-02-22T09:30:09.541Z,20.60
2023-02-22T09:32:36.168Z,20.50
2023-02-22T09:35:02.779Z,20.50
2023-02-22T09:37:29.310Z,20.50
2023-02-22T09:39:55.840Z,20.60
2023-02-22T09:42:22.345Z,20.50
2023-02-22T09:44:48.825Z,20.60
2023-02-22T09:47:15.336Z,20.70
2023-02-22T09:49:41.853Z,20.60
2023-02-22T09:52:08.369Z,20.50
2023-02-22T09:54:34.835Z,20.60
2023-02-22T09:57:01.288Z,20.60
2023-02-22T09:59:27.810Z,20.60
2023-02-22T10:01:54.308Z,20.60
2023-02-22T10:04:20.798Z,20.60
2023-02-22T10:06:47.303Z,20.60
2023-02-22T10:09:13.777Z,20.60
2023-02-22T10:11:40.322Z,20.60
2023-02-22T10:14:14.242Z,20.70
2023-02-22T10:16:40.846Z,20.70
2023-02-22T10:19:07.355Z,20.70
2023-02-22T10:21:33.851Z,20.70
2023-02-22T10:24:00.306Z,20.70
2023-02-22T10:26:26.799Z,20.70
2023-02-22T10:28:53.314Z,20.70
2023-02-22T10:31:19.896Z,20.70
2023-02-22T10:33:46.456Z,20.60
2023-02-22T10:36:12.941Z,20.60
2023-02-22T10:38:39.432Z,20.60
2023-02-22T10:41:05.893Z,20.60
2023-02-22T10:43:32.408Z,20.90
2023-02-22T10:45:58.881Z,20.60
2023-02-22T10:48:25.344Z,20.30
2023-02-22T10:50:51.831Z,20.50
2023-02-22T10:53:18.307Z,20.50
2023-02-22T10:55:44.787Z,20.50
2023-02-22T10:58:11.270Z,20.40
2023-02-22T11:00:37.802Z,20.40
2023-02-22T11:03:04.299Z,20.40
2023-02-22T11:05:30.834Z,20.40
2023-02-22T11:07:57.298Z,20.40
2023-02-22T11:10:26.504Z,20.50
2023-02-22T11:12:52.979Z,20.50
2023-02-22T11:15:19.454Z,20.60
2023-02-22T11:17:45.954Z,20.60
2023-02-22T11:20:12.462Z,20.70
2023-02-22T11:22:39.035Z,20.60
2023-02-22T11:25:05.559Z,20.70
2023-02-22T11:27:32.030Z,20.70
2023-02-22T11:29:58.501Z,20.60
2023-02-22T11:32:25.032Z,20.60
2023-02-22T11:35:00.218Z,20.60
2023-02-22T11:37:34.716Z,20.60
2023-02-22T11:40:01.192Z,20.50
2023-02-22T11:42:27.684Z,20.40
2023-02-22T11:44:54.152Z,20.50
2023-02-22T11:47:20.664Z,20.40
2023-02-22T11:49:47.166Z,20.40
2023-02-22T11:52:13.635Z,20.30
2023-02-22T11:54:40.142Z,20.40
2023-02-22T11:57:06.660Z,20.30
2023-02-22T11:59:33.119Z,20.30
2023-02-22T12:01:59.648Z,20.30
2023-02-22T12:04:26.120Z,20.30
2023-02-22T12:06:52.643Z,20.30
2023-02-22T12:09:19.166Z,20.30
2023-02-22T12:11:45.631Z,20.30
2023-02-22T12:14:12.104Z,20.20
2023-02-22T12:16:38.609Z,20.20
2023-02-22T12:19:05.128Z,20.20
2023-02-22T12:21:31.572Z,20.20
2023-02-22T12:23:58.026Z,20.10
2023-02-22T12:26:24.482Z,20.10
2023-02-22T12:28:51.026Z,20.20
2023-02-22T12:31:17.869Z,20.20
2023-02-22T12:33:44.661Z,20.10
2023-02-22T12:36:11.137Z,20.20
2023-02-22T12:38:37.611Z,20.10
2023-02-22T12:41:04.129Z,20.20
2023-02-22T12:43:30.598Z,20.10
2023-02-22T12:45:57.094Z,20.10
2023-02-22T12:48:23.592Z,20.10
2023-02-22T12:50:50.067Z,20.10
2023-02-22T12:53:16.521Z,20.10
2023-02-22T12:55:43.053Z,20.10
2023-02-22T12:58:09.571Z,20.10
2023-02-22T13:00:36.104Z,20.10
2023-02-22T13:03:02.603Z,20.00
2023-02-22T13:05:29.145Z,20.00
2023-02-22T13:07:55.718Z,20.10
2023-02-22T13:10:22.224Z,20.00
2023-02-22T13:12:50.708Z,20.00
2023-02-22T13:15:18.528Z,20.00
2023-02-22T13:17:45.029Z,20.00
2023-02-22T13:20:11.500Z,20.00
2023-02-22T13:22:37.960Z,20.00
2023-02-22T13:25:04.431Z,20.00
2023-02-22T13:27:30.876Z,20.00
2023-02-22T13:29:57.364Z,20.00
2023-02-22T13:32:23.885Z,20.00
2023-02-22T13:34:50.631Z,19.90
2023-02-22T13:37:17.195Z,19.90
2023-02-22T13:39:43.672Z,19.90
2023-02-22T13:42:10.154Z,19.70
2023-02-22T13:44:36.999Z,19.90
2023-02-22T13:47:03.455Z,19.90
2023-02-22T13:49:29.947Z,19.90
2023-02-22T13:51:56.399Z,19.90
2023-02-22T13:54:22.920Z,19.80
2023-02-22T13:56:49.413Z,19.80
2023-02-22T13:59:15.933Z,19.90
2023-02-22T14:01:42.442Z,19.80
2023-02-22T14:04:08.975Z,19.80
2023-02-22T14:06:35.451Z,19.90
2023-02-22T14:09:02.003Z,19.90
2023-02-22T14:11:28.501Z,19.90
2023-02-22T14:13:54.997Z,19.90
2023-02-22T14:16:21.496Z,19.90
2023-02-22T14:18:47.957Z,19.80
2023-02-22T14:21:14.453Z,19.80
2023-02-22T14:23:40.975Z,19.70
2023-02-22T14:26:07.513Z,19.80
2023-02-22T14:28:34.056Z,19.80
2023-02-22T14:31:00.628Z,19.80
2023-02-22T14:35:54.075Z,19.90
2023-02-22T14:38:20.528Z,19.80
2023-02-22T14:40:46.976Z,19.80
2023-02-22T14:43:13.461Z,19.80
2023-02-22T14:45:39.953Z,19.80
2023-02-22T14:48:06.487Z,19.80
2023-02-22T14:50:32.946Z,19.70
2023-02-22T14:52:59.428Z,19.80
2023-02-22T14:55:25.946Z,19.70
2023-02-22T14:57:52.444Z,19.70
2023-02-22T15:00:18.993Z,19.70
2023-02-22T15:02:45.538Z,19.70
2023-02-22T15:05:12.029Z,19.70
2023-02-22T15:07:38.504Z,19.70
2023-02-22T15:10:05.005Z,19.70
2023-02-22T15:12:31.518Z,19.70
2023-02-22T15:14:58.008Z,19.70
2023-02-22T15:17:24.487Z,19.70
2023-02-22T15:19:51.005Z,19.70
2023-02-22T15:22:17.519Z,19.70
2023-02-22T15:24:44.027Z,19.50
2023-02-22T15:27:10.491Z,19.70
2023-02-22T15:29:36.992Z,19.70
2023-02-22T15:32:03.503Z,19.70
2023-02-22T15:34:30.047Z,19.70
2023-02-22T15:36:56.540Z,19.70
2023-02-22T15:39:23.004Z,19.70
2023-02-22T15:41:49.466Z,19.70
2023-02-22T15:44:23.802Z,19.70
2023-02-22T15:46:50.690Z,19.70
2023-02-22T15:49:17.247Z,19.70
2023-02-22T15:51:43.702Z,19.70
2023-02-22T15:54:18.346Z,19.70
2023-02-22T15:56:51.720Z,19.70
2023-02-22T15:59:18.172Z,19.70
2023-02-22T16:01:44.749Z,19.60
2023-02-22T16:04:11.310Z,19.70
2023-02-22T16:06:37.824Z,19.70
2023-02-22T16:09:04.290Z,19.70
2023-02-22T16:11:30.839Z,19.70
2023-02-22T16:13:57.324Z,19.70
2023-02-22T16:16:23.905Z,19.70
2023-02-22T16:18:50.407Z,19.70
2023-02-22T16:21:17.389Z,19.70
2023-02-22T16:23:44.221Z,19.40
2023-02-22T16:26:10.743Z,19.70
2023-02-22T16:28:37.263Z,19.60
2023-02-22T16:31:03.900Z,19.70
2023-02-22T16:33:30.517Z,19.30
2023-02-22T16:35:56.987Z,19.70
2023-02-22T16:38:23.493Z,19.70
2023-02-22T16:40:49.962Z,19.60
2023-02-22T16:43:16.428Z,19.60
2023-02-22T16:45:43.028Z,19.70
2023-02-22T16:48:09.610Z,19.70
2023-02-22T16:50:36.109Z,19.60
2023-02-22T16:53:02.578Z,19.60
2023-02-22T16:55:29.034Z,19.60
2023-02-22T16:57:55.541Z,19.60
2023-02-22T17:00:22.020Z,19.60
2023-02-22T17:02:48.577Z,19.60
2023-02-22T17:05:15.045Z,19.60
2023-02-22T17:07:41.587Z,19.60
2023-02-22T17:10:08.138Z,19.60
2023-02-22T17:12:34.625Z,19.60
2023-02-22T17:15:01.100Z,19.60
2023-02-22T17:17:27.612Z,18.60
2023-02-22T17:19:54.127Z,19.70
2023-02-22T17:22:20.581Z,19.70
2023-02-22T17:24:47.104Z,19.70
2023-02-22T17:27:13.609Z,19.70
2023-02-22T17:29:40.077Z,19.70
2023-02-22T17:32:06.583Z,19.70
2023-02-22T17:34:33.151Z,19.70
2023-02-22T17:36:59.622Z,19.70
2023-02-22T17:39:26.072Z,19.70
2023-02-22T17:41:54.757Z,19.70
2023-02-22T17:44:21.286Z,19.70
2023-02-22T17:46:47.804Z,19.70
2023-02-22T17:49:14.266Z,19.80
2023-02-22T17:51:40.758Z,19.80
2023-02-22T17:54:09.010Z,19.70
2023-02-22T17:56:35.896Z,19.70
2023-02-22T17:59:02.346Z,19.70
2023-02-22T18:01:28.815Z,19.70
2023-02-22T18:03:55.323Z,19.70
2023-02-22T18:06:25.017Z,19.70
2023-02-22T18:08:53.589Z,19.70
2023-02-22T18:11:21.957Z,19.70
2023-02-22T18:13:48.458Z,19.70
2023-02-22T18:16:14.976Z,19.70
2023-02-22T18:18:41.492Z,19.70
2023-02-22T18:21:08.024Z,19.70
2023-02-22T18:23:34.528Z,19.50
2023-02-22T18:26:10.575Z,19.60
2023-02-22T18:28:37.914Z,19.60
2023-02-22T18:31:04.487Z,19.60
2023-02-22T18:33:31.002Z,20.10
2023-02-22T18:35:57.505Z,19.60
2023-02-22T18:38:23.997Z,19.60
2023-02-22T18:40:50.466Z,19.60
2023-02-22T18:43:16.996Z,19.60
2023-02-22T18:45:43.459Z,19.60
2023-02-22T18:48:09.928Z,19.50
2023-02-22T18:50:36.487Z,19.60
2023-02-22T18:53:02.951Z,19.60
2023-02-22T18:55:29.457Z,19.60
2023-02-22T18:57:55.950Z,19.60
2023-02-22T19:00:22.429Z,19.60
2023-02-22T19:02:48.900Z,19.60
2023-02-22T19:05:15.389Z,19.60
2023-02-22T19:07:41.887Z,19.60
2023-02-22T19:10:08.389Z,19.60
2023-02-22T19:12:34.877Z,19.60
2023-02-22T19:15:01.342Z,19.50
2023-02-22T19:17:27.884Z,19.60
2023-02-22T19:19:54.358Z,19.60
2023-02-22T19:22:20.815Z,19.60
2023-02-22T19:24:47.290Z,19.60
2023-02-22T19:27:13.825Z,19.60
2023-02-22T19:29:40.319Z,19.60
2023-02-22T19:32:06.922Z,19.60
2023-02-22T19:34:33.414Z,19.60
2023-02-22T19:36:59.925Z,19.60
2023-02-22T19:39:26.392Z,19.60
2023-02-22T19:41:52.893Z,19.60
2023-02-22T19:44:19.388Z,19.60
2023-02-22T19:46:47.684Z,19.60
2023-02-22T19:49:14.223Z,19.60
2023-02-22T19:51:40.671Z,19.60
2023-02-22T19:54:07.148Z,19.60
2023-02-22T19:56:33.685Z,19.60
2023-02-22T19:59:00.196Z,19.60
2023-02-22T20:01:26.674Z,19.60
2023-02-22T20:03:53.288Z,19.60
2023-02-22T20:06:19.879Z,19.60
2023-02-22T20:08:46.406Z,19.60
2023-02-22T20:11:12.915Z,19.60
2023-02-22T20:13:39.446Z,20.00
2023-02-22T20:16:05.930Z,19.50
2023-02-22T20:18:32.479Z,19.70
2023-02-22T20:20:58.970Z,19.70
2023-02-22T20:23:25.510Z,19.70
2023-02-22T20:25:52.095Z,19.60
2023-02-22T20:28:18.580Z,19.70
2023-02-22T20:30:45.124Z,19.70
2023-02-22T20:33:11.848Z,19.70
2023-02-22T20:35:38.411Z,19.60
2023-02-22T20:38:04.863Z,19.70
2023-02-22T20:40:31.358Z,19.80
2023-02-22T20:42:57.882Z,19.70
2023-02-22T20:45:24.363Z,19.70
2023-02-22T20:47:50.850Z,19.60
2023-02-22T20:50:17.364Z,19.70
2023-02-22T20:52:43.845Z,19.80
2023-02-22T20:55:10.339Z,19.80
2023-02-22T20:57:36.833Z,19.80
2023-02-22T21:00:03.281Z,19.80
2023-02-22T21:02:29.769Z,19.80
2023-02-22T21:04:56.232Z,19.70
2023-02-22T21:07:22.792Z,19.70
2023-02-22T21:09:49.277Z,19.70
2023-02-22T21:12:15.785Z,19.70
2023-02-22T21:14:42.288Z,19.70
2023-02-22T21:17:08.863Z,19.70
2023-02-22T21:19:35.406Z,19.70
2023-02-22T21:22:01.949Z,19.70
2023-02-22T21:24:28.468Z,19.70
2023-02-22T21:26:55.016Z,19.70
2023-02-22T21:29:21.508Z,19.70
2023-02-22T21:31:48.134Z,19.70
2023-02-22T21:34:14.714Z,19.60
2023-02-22T21:36:41.212Z,19.60
2023-02-22T21:39:07.708Z,19.60
2023-02-22T21:41:34.253Z,19.60
2023-02-22T21:44:00.741Z,20.80
2023-02-22T21:46:27.301Z,19.60
2023-02-22T21:48:53.853Z,19.60
2023-02-22T21:51:20.423Z,19.60
2023-02-22T21:53:46.976Z,20.50
2023-02-22T21:56:13.440Z,19.60
2023-02-22T21:58:39.883Z,19.60
2023-02-22T22:01:06.430Z,19.70
2023-02-22T22:03:32.905Z,18.90
2023-02-22T22:05:59.412Z,19.60
2023-02-22T22:08:25.902Z,19.60
2023-02-22T22:10:52.396Z,19.60
2023-02-22T22:13:18.855Z,19.60
2023-02-22T22:15:45.394Z,19.60
2023-02-22T22:18:11.893Z,19.60
2023-02-22T22:20:38.420Z,19.70
2023-02-22T22:23:04.959Z,19.70
2023-02-22T22:25:31.442Z,19.70
2023-02-22T22:27:57.938Z,19.60
2023-02-22T22:30:24.463Z,19.70
2023-02-22T22:32:50.932Z,19.70
2023-02-22T22:35:17.388Z,19.70
2023-02-22T22:37:43.856Z,19.60
2023-02-22T22:40:10.348Z,19.70
2023-02-22T22:42:36.832Z,19.70
2023-02-22T22:45:03.322Z,19.70
2023-02-22T22:47:29.822Z,19.70
2023-02-22T22:49:56.290Z,19.70
2023-02-22T22:52:22.727Z,19.70
2023-02-22T22:54:49.198Z,19.70
2023-02-22T22:57:15.737Z,19.70
2023-02-22T22:59:42.248Z,19.70
2023-02-22T23:02:08.770Z,19.70
2023-02-22T23:04:35.221Z,19.70
2023-02-22T23:07:01.663Z,19.70
2023-02-22T23:09:28.115Z,19.70
2023-02-22T23:11:54.568Z,19.70
2023-02-22T23:14:21.012Z,19.70
2023-02-22T23:16:47.489Z,19.70
2023-02-22T23:19:13.987Z,19.70
2023-02-22T23:21:40.475Z,19.70
2023-02-22T23:24:06.973Z,19.70
2023-02-22T23:26:33.459Z,19.70
2023-02-22T23:28:59.954Z,19.70
2023-02-22T23:31:26.535Z,19.70
2023-02-22T23:33:53.067Z,19.70
2023-02-22T23:36:19.582Z,19.70
2023-02-22T23:38:46.064Z,21.10
2023-02-22T23:41:12.553Z,19.70
2023-02-22T23:43:39.038Z,19.50
2023-02-22T23:46:05.513Z,19.70
2023-02-22T23:48:32.006Z,19.70
2023-02-22T23:50:58.489Z,19.70
2023-02-22T23:53:24.972Z,19.70
2023-02-22T23:55:51.447Z,19.70
2023-02-22T23:58:17.924Z,19.70
